createdAt,value
2023-04-15T00:02:18.438Z,6.37
2023-04-15T00:04:46.484Z,6.34
2023-04-15T00:07:14.611Z,6.33
2023-04-15T00:09:42.722Z,6.37
2023-04-15T00:12:10.460Z,6.39
2023-04-15T00:14:38.001Z,6.34
2023-04-15T00:17:05.631Z,6.43
2023-04-15T00:19:34.605Z,6.33
2023-04-15T00:22:02.181Z,6.30
2023-04-15T00:24:31.303Z,6.36
2023-04-15T00:26:59.015Z,6.42
2023-04-15T00:29:26.599Z,6.30
2023-04-15T00:31:54.088Z,6.36
2023-04-15T00:34:21.553Z,6.37
2023-04-15T00:36:50.557Z,6.34
2023-04-15T00:39:18.029Z,6.45
2023-04-15T00:41:46.515Z,6.48
2023-04-15T00:44:14.326Z,6.45
2023-04-15T00:46:44.102Z,6.43
2023-04-15T00:49:11.766Z,6.37
2023-04-15T00:51:39.284Z,6.45
2023-04-15T00:54:08.150Z,6.36
2023-04-15T00:56:37.945Z,6.37
2023-04-15T00:59:06.239Z,6.43
2023-04-15T01:01:35.958Z,6.31
2023-04-15T01:04:04.302Z,6.31
2023-04-15T01:06:32.738Z,6.24
2023-04-15T01:09:01.540Z,6.22
2023-04-15T01:11:33.058Z,6.30
2023-04-15T01:14:00.953Z,6.24
2023-04-15T01:16:28.703Z,6.23
2023-04-15T01:18:56.942Z,6.28
2023-04-15T01:21:24.719Z,6.36
2023-04-15T01:23:54.296Z,6.47
2023-04-15T01:26:23.682Z,6.35
2023-04-15T01:28:51.715Z,6.33
2023-04-15T01:31:19.206Z,6.37
2023-04-15T01:33:47.456Z,6.45
2023-04-15T01:36:14.946Z,6.41
2023-04-15T01:38:42.464Z,6.39
2023-04-15T01:41:09.920Z,6.32
2023-04-15T01:43:38.730Z,6.43
2023-04-15T01:46:07.077Z,6.49
2023-04-15T01:48:34.948Z,6.52
2023-04-15T01:51:02.757Z,6.44
2023-04-15T01:53:30.265Z,6.48
2023-04-15T01:55:57.762Z,6.40
2023-04-15T01:58:25.255Z,6.45
2023-04-15T02:00:54.116Z,6.59
2023-04-15T02:03:21.758Z,6.49
2023-04-15T02:05:49.433Z,6.39
2023-04-15T02:08:17.137Z,6.44
2023-04-15T02:10:44.613Z,6.45
2023-04-15T02:13:12.086Z,6.52
2023-04-15T02:15:39.562Z,6.47
2023-04-15T02:18:08.369Z,6.53
2023-04-15T02:20:36.804Z,6.40
2023-04-15T02:23:07.277Z,6.44
2023-04-15T02:25:34.816Z,6.44
2023-04-15T02:28:02.478Z,6.34
2023-04-15T02:30:29.951Z,6.43
2023-04-15T02:32:57.525Z,6.45
2023-04-15T02:35:26.656Z,6.40
2023-04-15T02:37:54.174Z,6.40
2023-04-15T02:40:21.931Z,6.43
2023-04-15T02:42:49.385Z,6.44
2023-04-15T02:45:18.078Z,6.49
2023-04-15T02:47:46.825Z,6.47
2023-04-15T02:50:15.099Z,6.41
2023-04-15T02:52:44.664Z,6.34
2023-04-15T02:55:12.671Z,6.43
2023-04-15T02:57:41.120Z,6.57
2023-04-15T03:00:11.562Z,6.52
2023-04-15T03:02:40.263Z,6.64
2023-04-15T03:05:12.679Z,6.35
2023-04-15T03:07:40.903Z,6.23
2023-04-15T03:10:11.008Z,6.19
2023-04-15T03:12:38.488Z,6.29
2023-04-15T03:15:06.908Z,6.19
2023-04-15T03:17:34.396Z,6.19
2023-04-15T03:20:02.864Z,6.12
2023-04-15T03:22:30.480Z,6.10
2023-04-15T03:24:58.061Z,6.03
2023-04-15T03:27:27.007Z,6.00
2023-04-15T03:29:54.462Z,5.89
2023-04-15T03:32:21.962Z,5.94
2023-04-15T03:34:49.504Z,5.98
2023-04-15T03:37:17.010Z,5.84
2023-04-15T03:39:44.489Z,5.92
2023-04-15T03:42:12.053Z,5.81
2023-04-15T03:44:41.380Z,5.80
2023-04-15T03:47:08.858Z,5.95
2023-04-15T03:49:36.986Z,5.85
2023-04-15T03:52:04.446Z,5.71
2023-04-15T03:54:31.934Z,5.71
2023-04-15T03:56:59.398Z,5.67
2023-04-15T03:59:26.908Z,5.63
2023-04-15T04:01:55.953Z,5.69
2023-04-15T04:04:23.606Z,5.61
2023-04-15T04:06:51.205Z,5.70
2023-04-15T04:09:18.672Z,5.50
2023-04-15T04:11:46.658Z,5.48
2023-04-15T04:14:14.105Z,5.54
2023-04-15T04:16:42.155Z,5.49
2023-04-15T04:19:11.306Z,5.49
2023-04-15T04:21:39.635Z,5.56
2023-04-15T04:24:07.155Z,5.55
2023-04-15T04:26:34.608Z,5.51
2023-04-15T04:29:02.288Z,5.54
2023-04-15T04:31:29.976Z,5.45
2023-04-15T04:33:57.460Z,5.49
2023-04-15T04:36:26.529Z,5.54
2023-04-15T04:38:54.011Z,5.69
2023-04-15T04:41:21.479Z,5.53
2023-04-15T04:43:48.919Z,5.61
2023-04-15T04:46:16.583Z,5.57
2023-04-15T04:48:45.366Z,5.51
2023-04-15T04:51:14.544Z,5.59
2023-04-15T04:53:43.991Z,5.67
2023-04-15T04:56:11.591Z,5.55
2023-04-15T04:58:39.113Z,5.56
2023-04-15T05:01:06.883Z,5.53
2023-04-15T05:03:34.470Z,5.62
2023-04-15T05:06:03.086Z,5.52
2023-04-15T05:08:30.573Z,5.55
2023-04-15T05:10:59.392Z,5.52
2023-04-15T05:13:27.043Z,5.47
2023-04-15T05:15:54.550Z,5.64
2023-04-15T05:18:22.147Z,5.48
2023-04-15T05:20:50.361Z,5.53
2023-04-15T05:23:18.612Z,5.60
2023-04-15T05:25:46.277Z,5.53
2023-04-15T05:28:15.084Z,5.56
2023-04-15T05:30:42.846Z,5.52
2023-04-15T05:33:10.807Z,5.34
2023-04-15T05:35:38.288Z,5.38
2023-04-15T05:38:05.731Z,5.54
2023-04-15T05:40:33.283Z,5.64
2023-04-15T05:43:01.129Z,5.45
2023-04-15T05:45:29.926Z,5.26
2023-04-15T05:47:57.466Z,5.16
2023-04-15T05:50:24.936Z,5.14
2023-04-15T05:52:52.425Z,5.26
2023-04-15T05:55:20.129Z,5.32
2023-04-15T05:57:47.759Z,5.25
2023-04-15T06:00:16.376Z,5.07
2023-04-15T06:02:45.659Z,5.04
2023-04-15T06:05:13.715Z,5.16
2023-04-15T06:07:41.633Z,5.01
2023-04-15T06:10:10.065Z,5.00
2023-04-15T06:12:37.588Z,4.95
2023-04-15T06:15:06.606Z,4.95
2023-04-15T06:17:34.097Z,5.11
2023-04-15T06:20:02.906Z,5.05
2023-04-15T06:22:30.357Z,5.12
2023-04-15T06:24:57.879Z,5.02
2023-04-15T06:27:25.322Z,4.96
2023-04-15T06:29:52.843Z,4.99
2023-04-15T06:32:20.380Z,4.97
2023-04-15T06:34:47.852Z,5.07
2023-04-15T06:37:16.664Z,5.18
2023-04-15T06:39:44.615Z,5.16
2023-04-15T06:42:12.436Z,5.20
2023-04-15T06:44:40.066Z,5.27
2023-04-15T06:47:07.543Z,5.15
2023-04-15T06:49:34.983Z,5.07
2023-04-15T06:52:02.838Z,5.01
2023-04-15T06:54:31.939Z,5.08
2023-04-15T06:56:59.398Z,5.01
2023-04-15T06:59:27.295Z,5.16
2023-04-15T07:01:54.837Z,5.37
2023-04-15T07:04:22.431Z,5.43
2023-04-15T07:06:49.986Z,5.21
2023-04-15T07:09:17.480Z,5.19
2023-04-15T07:11:46.289Z,5.30
2023-04-15T07:14:13.867Z,5.28
2023-04-15T07:16:41.790Z,5.27
2023-04-15T07:19:09.289Z,5.27
2023-04-15T07:21:36.767Z,5.54
2023-04-15T07:24:04.270Z,5.55
2023-04-15T07:26:31.871Z,5.77
2023-04-15T07:29:00.970Z,5.48
2023-04-15T07:31:28.771Z,5.43
2023-04-15T07:33:56.300Z,5.41
2023-04-15T07:36:24.043Z,5.63
2023-04-15T07:38:52.053Z,5.80
2023-04-15T07:41:20.420Z,5.63
2023-04-15T07:43:48.390Z,5.67
2023-04-15T07:46:17.295Z,5.73
2023-04-15T07:48:44.756Z,5.48
2023-04-15T07:51:12.938Z,5.49
2023-04-15T07:53:40.503Z,5.72
2023-04-15T07:56:08.390Z,5.68
2023-04-15T07:58:35.986Z,5.72
2023-04-15T08:01:03.453Z,5.74
2023-04-15T08:03:33.104Z,5.70
2023-04-15T08:06:00.666Z,5.67
2023-04-15T08:08:28.170Z,5.81
2023-04-15T08:10:55.829Z,6.03
2023-04-15T08:13:23.322Z,5.85
2023-04-15T08:16:16.089Z,5.73
2023-04-15T08:18:45.177Z,5.80
2023-04-15T08:21:13.315Z,6.02
2023-04-15T08:23:40.952Z,5.83
2023-04-15T08:26:08.701Z,6.06
2023-04-15T08:28:36.645Z,6.05
2023-04-15T08:31:04.167Z,5.96
2023-04-15T08:33:31.792Z,5.76
2023-04-15T08:36:00.628Z,5.82
2023-04-15T08:38:28.158Z,5.91
2023-04-15T08:40:58.279Z,5.87
2023-04-15T08:43:30.615Z,5.84
2023-04-15T08:46:01.528Z,5.80
2023-04-15T08:48:30.451Z,5.84
2023-04-15T08:50:58.203Z,5.70
2023-04-15T08:53:27.533Z,5.73
2023-04-15T08:55:58.240Z,5.78
2023-04-15T08:58:26.519Z,6.01
2023-04-15T09:00:54.125Z,5.90
2023-04-15T09:03:23.589Z,5.70
2023-04-15T09:05:53.288Z,5.73
2023-04-15T09:08:21.029Z,5.82
2023-04-15T09:10:49.914Z,5.78
2023-04-15T09:13:17.421Z,5.93
2023-04-15T09:15:44.993Z,5.94
2023-04-15T09:18:13.342Z,6.05
2023-04-15T09:20:42.567Z,5.94
2023-04-15T09:23:14.327Z,6.05
2023-04-15T09:25:43.336Z,6.07
2023-04-15T09:28:12.191Z,6.19
2023-04-15T09:30:39.708Z,6.23
2023-04-15T09:33:08.440Z,6.25
2023-04-15T09:35:37.013Z,6.22
2023-04-15T09:38:06.293Z,6.06
2023-04-15T09:40:35.912Z,6.06
2023-04-15T09:43:05.130Z,6.01
2023-04-15T09:45:35.184Z,6.09
2023-04-15T09:48:17.191Z,6.11
2023-04-15T09:50:45.426Z,6.31
2023-04-15T09:53:16.743Z,6.14
2023-04-15T09:55:46.072Z,6.34
2023-04-15T09:58:19.388Z,6.29
2023-04-15T10:00:49.968Z,6.71
2023-04-15T10:03:21.625Z,6.81
2023-04-15T10:05:50.763Z,7.22
2023-04-15T10:08:20.480Z,6.77
2023-04-15T10:10:49.211Z,6.73
2023-04-15T10:13:19.589Z,6.54
2023-04-15T10:15:53.368Z,6.78
2023-04-15T10:18:22.500Z,6.71
2023-04-15T10:20:50.132Z,7.17
2023-04-15T10:23:19.040Z,7.17
2023-04-15T10:25:47.132Z,7.10
2023-04-15T10:28:16.401Z,7.22
2023-04-15T10:30:44.582Z,6.87
2023-04-15T10:33:14.146Z,6.98
2023-04-15T10:35:42.497Z,7.17
2023-04-15T10:38:35.665Z,7.38
2023-04-15T10:41:21.543Z,7.46
2023-04-15T10:43:51.473Z,7.58
2023-04-15T10:46:21.731Z,7.82
2023-04-15T10:48:52.320Z,7.99
2023-04-15T10:51:29.979Z,7.77
2023-04-15T10:53:59.304Z,7.87
2023-04-15T10:56:27.078Z,7.70
2023-04-15T10:58:54.568Z,7.63
2023-04-15T11:01:23.677Z,7.77
2023-04-15T11:03:52.732Z,7.49
2023-04-15T11:06:20.778Z,8.05
2023-04-15T11:08:56.702Z,8.18
2023-04-15T11:11:24.260Z,8.62
2023-04-15T11:13:54.183Z,9.11
2023-04-15T11:16:21.776Z,9.12
2023-04-15T11:18:57.433Z,9.88
2023-04-15T11:21:28.086Z,9.89
2023-04-15T11:23:55.559Z,11.40
2023-04-15T11:26:27.046Z,11.43
2023-04-15T11:28:54.869Z,9.16
2023-04-15T11:31:23.954Z,9.47
2023-04-15T11:33:58.085Z,8.91
2023-04-15T11:36:28.053Z,8.62
2023-04-15T11:38:56.175Z,8.43
2023-04-15T11:41:24.250Z,8.53
2023-04-15T11:43:51.991Z,8.29
2023-04-15T11:46:19.885Z,8.32
2023-04-15T11:48:48.052Z,7.87
2023-04-15T11:51:16.882Z,7.78
2023-04-15T11:53:46.025Z,7.87
2023-04-15T11:56:20.165Z,7.93
2023-04-15T11:58:48.249Z,7.72
2023-04-15T12:01:15.709Z,7.99
2023-04-15T12:03:44.666Z,7.89
2023-04-15T12:06:16.821Z,7.92
2023-04-15T12:09:13.911Z,7.72
2023-04-15T12:11:47.093Z,7.86
2023-04-15T12:14:21.100Z,8.35
2023-04-15T12:16:51.579Z,8.07
2023-04-15T12:19:24.488Z,8.04
2023-04-15T12:21:52.354Z,7.78
2023-04-15T12:24:23.649Z,7.80
2023-04-15T12:26:53.077Z,7.64
2023-04-15T12:29:22.150Z,7.67
2023-04-15T12:31:51.502Z,7.68
2023-04-15T12:34:19.958Z,7.80
2023-04-15T12:36:47.599Z,7.72
2023-04-15T12:39:15.127Z,7.69
2023-04-15T12:41:44.225Z,7.67
2023-04-15T12:44:11.985Z,8.17
2023-04-15T12:46:39.511Z,8.13
2023-04-15T12:49:07.071Z,8.05
2023-04-15T12:51:34.547Z,8.04
2023-04-15T12:54:02.225Z,7.87
2023-04-15T12:56:29.902Z,7.62
2023-04-15T12:58:58.768Z,7.66
2023-04-15T13:01:26.493Z,7.56
2023-04-15T13:03:54.235Z,7.40
2023-04-15T13:06:21.799Z,7.54
2023-04-15T13:08:57.942Z,7.57
2023-04-15T13:11:27.130Z,7.39
2023-04-15T13:13:54.713Z,7.51
2023-04-15T13:16:24.721Z,7.50
2023-04-15T13:18:52.265Z,7.58
2023-04-15T13:21:20.308Z,7.51
2023-04-15T13:23:47.787Z,7.49
2023-04-15T13:26:15.286Z,7.44
2023-04-15T13:28:42.857Z,7.32
2023-04-15T13:31:10.432Z,7.39
2023-04-15T13:33:39.288Z,7.30
2023-04-15T13:36:07.102Z,7.31
2023-04-15T13:38:34.636Z,7.65
2023-04-15T13:41:02.138Z,7.82
2023-04-15T13:43:29.620Z,7.96
2023-04-15T13:45:57.489Z,7.91
2023-04-15T13:48:25.034Z,7.65
2023-04-15T13:50:53.847Z,7.65
2023-04-15T13:53:21.520Z,7.49
2023-04-15T13:56:01.554Z,7.59
2023-04-15T13:58:28.997Z,8.07
2023-04-15T14:00:56.895Z,8.28
2023-04-15T14:03:24.476Z,7.97
2023-04-15T14:05:55.859Z,7.59
2023-04-15T14:08:26.208Z,7.71
2023-04-15T14:10:53.684Z,8.12
2023-04-15T14:13:21.286Z,8.22
2023-04-15T14:15:48.756Z,7.99
2023-04-15T14:18:16.213Z,8.09
2023-04-15T14:20:43.710Z,8.16
2023-04-15T14:23:11.195Z,7.92
2023-04-15T14:25:40.206Z,8.02
2023-04-15T14:28:07.684Z,8.45
2023-04-15T14:30:35.454Z,8.02
2023-04-15T14:33:03.332Z,8.10
2023-04-15T14:35:31.457Z,8.04
2023-04-15T14:37:59.060Z,7.79
2023-04-15T14:40:26.627Z,7.79
2023-04-15T14:42:55.541Z,7.69
2023-04-15T14:45:23.081Z,7.49
2023-04-15T14:47:50.854Z,7.66
2023-04-15T14:50:18.539Z,7.76
2023-04-15T14:52:46.149Z,7.71
2023-04-15T14:55:14.288Z,7.57
2023-04-15T14:57:43.024Z,7.52
2023-04-15T15:00:15.978Z,7.75
2023-04-15T15:02:44.081Z,7.79
2023-04-15T15:05:12.595Z,7.77
2023-04-15T15:07:40.995Z,8.09
2023-04-15T15:10:09.408Z,8.12
2023-04-15T15:12:37.061Z,8.00
2023-04-15T15:15:15.814Z,7.94
2023-04-15T15:17:48.623Z,8.05
2023-04-15T15:20:16.687Z,8.26
2023-04-15T15:22:44.162Z,8.20
2023-04-15T15:25:11.673Z,8.29
2023-04-15T15:27:39.221Z,8.35
2023-04-15T15:30:07.665Z,8.30
2023-04-15T15:32:35.541Z,8.07
2023-04-15T15:35:04.574Z,8.32
2023-04-15T15:37:32.222Z,8.50
2023-04-15T15:40:00.809Z,8.38
2023-04-15T15:42:31.867Z,8.42
2023-04-15T15:44:59.591Z,8.57
2023-04-15T15:47:27.532Z,8.59
2023-04-15T15:49:55.914Z,8.64
2023-04-15T15:52:24.744Z,8.57
2023-04-15T15:54:52.223Z,8.66
2023-04-15T15:57:19.732Z,8.82
2023-04-15T15:59:47.190Z,8.94
2023-04-15T16:02:15.019Z,9.10
2023-04-15T16:04:43.266Z,9.55
2023-04-15T16:07:11.248Z,9.50
2023-04-15T16:09:40.980Z,9.48
2023-04-15T16:12:08.467Z,9.21
2023-04-15T16:14:36.397Z,8.82
2023-04-15T16:17:03.911Z,9.13
2023-04-15T16:19:31.556Z,8.90
2023-04-15T16:21:59.154Z,8.65
2023-04-15T16:24:27.578Z,8.76
2023-04-15T16:26:58.403Z,8.69
2023-04-15T16:29:26.240Z,8.72
2023-04-15T16:31:53.856Z,8.61
2023-04-15T16:34:21.413Z,8.42
2023-04-15T16:36:48.871Z,8.30
2023-04-15T16:39:16.627Z,8.40
2023-04-15T16:41:44.139Z,8.29
2023-04-15T16:44:12.938Z,8.32
2023-04-15T16:46:41.052Z,8.08
2023-04-15T16:49:08.727Z,8.01
2023-04-15T16:51:36.278Z,7.99
2023-04-15T16:54:04.861Z,8.37
2023-04-15T16:56:32.321Z,8.28
2023-04-15T16:58:59.923Z,8.07
2023-04-15T17:01:29.972Z,8.00
2023-04-15T17:03:57.660Z,8.19
2023-04-15T17:06:25.213Z,8.19
2023-04-15T17:08:52.698Z,8.11
2023-04-15T17:11:20.347Z,7.86
2023-04-15T17:13:49.032Z,7.79
2023-04-15T17:16:16.602Z,7.74
2023-04-15T17:18:47.344Z,7.67
2023-04-15T17:21:16.019Z,7.76
2023-04-15T17:23:43.550Z,7.69
2023-04-15T17:26:11.097Z,7.92
2023-04-15T17:28:38.867Z,7.78
2023-04-15T17:31:06.474Z,7.67
2023-04-15T17:33:59.152Z,7.79
2023-04-15T17:36:23.323Z,7.62
2023-04-15T17:38:50.915Z,7.71
2023-04-15T17:41:18.368Z,7.43
2023-04-15T17:43:46.047Z,7.61
2023-04-15T17:46:13.724Z,7.63
2023-04-15T17:48:41.443Z,7.44
2023-04-15T17:51:08.949Z,7.31
2023-04-15T17:53:37.761Z,7.42
2023-04-15T17:56:05.761Z,7.48
2023-04-15T17:58:33.216Z,7.46
2023-04-15T18:01:00.672Z,7.41
2023-04-15T18:03:28.375Z,7.48
2023-04-15T18:05:56.685Z,7.62
2023-04-15T18:08:24.228Z,7.53
2023-04-15T18:10:53.011Z,7.60
2023-04-15T18:13:20.484Z,7.56
2023-04-15T18:15:48.776Z,7.66
2023-04-15T18:18:16.269Z,7.66
2023-04-15T18:20:43.804Z,7.58
2023-04-15T18:23:11.279Z,8.02
2023-04-15T18:25:38.781Z,8.00
2023-04-15T18:28:07.714Z,8.12
2023-04-15T18:30:35.251Z,8.18
2023-04-15T18:33:02.853Z,7.89
2023-04-15T18:35:30.753Z,7.89
2023-04-15T18:37:58.864Z,8.07
2023-04-15T18:40:26.321Z,7.93
2023-04-15T18:42:53.785Z,7.97
2023-04-15T18:45:22.660Z,7.99
2023-04-15T18:47:51.207Z,7.99
2023-04-15T18:50:18.976Z,7.72
2023-04-15T18:52:46.497Z,7.74
2023-04-15T18:55:14.237Z,7.71
2023-04-15T18:57:44.699Z,7.77
2023-04-15T19:00:15.959Z,7.75
2023-04-15T19:02:45.056Z,8.28
2023-04-15T19:05:12.606Z,8.14
2023-04-15T19:07:41.101Z,8.46
2023-04-15T19:10:09.065Z,8.00
2023-04-15T19:12:37.366Z,7.92
2023-04-15T19:15:05.127Z,7.74
2023-04-15T19:17:33.062Z,7.96
2023-04-15T19:20:01.860Z,8.01
2023-04-15T19:22:30.791Z,8.16
2023-04-15T19:24:58.478Z,8.55
2023-04-15T19:27:26.080Z,8.96
2023-04-15T19:29:53.586Z,8.58
2023-04-15T19:32:21.315Z,8.49
2023-04-15T19:34:49.340Z,8.20
2023-04-15T19:37:18.889Z,8.27
2023-04-15T19:39:46.422Z,8.43
2023-04-15T19:42:13.972Z,8.42
2023-04-15T19:44:42.828Z,8.57
2023-04-15T19:47:10.638Z,8.20
2023-04-15T19:49:38.564Z,8.18
2023-04-15T19:52:06.064Z,8.02
2023-04-15T19:54:34.974Z,8.17
2023-04-15T19:57:02.499Z,8.40
2023-04-15T19:59:30.023Z,7.95
2023-04-15T20:01:57.686Z,8.30
2023-04-15T20:04:25.924Z,8.09
2023-04-15T20:06:53.589Z,8.12
2023-04-15T20:09:21.165Z,8.35
2023-04-15T20:12:47.010Z,8.20
2023-04-15T20:14:37.758Z,7.98
2023-04-15T20:17:05.316Z,8.04
2023-04-15T20:19:32.786Z,7.93
2023-04-15T20:22:00.311Z,8.14
2023-04-15T20:24:27.794Z,7.85
2023-04-15T20:26:57.463Z,7.63
2023-04-15T20:29:25.059Z,7.63
2023-04-15T20:31:52.617Z,7.63
2023-04-15T20:34:20.185Z,7.55
2023-04-15T20:36:47.657Z,7.68
2023-04-15T20:39:15.133Z,7.68
2023-04-15T20:41:42.604Z,7.57
2023-04-15T20:44:11.450Z,7.61
2023-04-15T20:46:38.966Z,7.85
2023-04-15T20:49:06.827Z,7.73
2023-04-15T20:51:37.660Z,7.60
2023-04-15T20:54:05.439Z,7.59
2023-04-15T20:56:32.916Z,7.80
2023-04-15T20:59:01.048Z,7.88
2023-04-15T21:01:29.859Z,8.08
2023-04-15T21:03:57.379Z,8.21
2023-04-15T21:06:24.839Z,8.58
2023-04-15T21:08:52.421Z,8.51
2023-04-15T21:11:38.791Z,8.82
2023-04-15T21:14:08.327Z,8.15
2023-04-15T21:16:37.126Z,7.92
2023-04-15T21:19:04.909Z,8.27
2023-04-15T21:21:32.917Z,8.15
2023-04-15T21:24:00.887Z,7.69
2023-04-15T21:26:28.404Z,7.55
2023-04-15T21:28:56.258Z,7.66
2023-04-15T21:31:24.108Z,7.47
2023-04-15T21:33:52.991Z,7.66
2023-04-15T21:36:31.666Z,7.48
2023-04-15T21:38:59.246Z,7.37
2023-04-15T21:41:26.773Z,7.47
2023-04-15T21:43:54.752Z,7.41
2023-04-15T21:46:25.642Z,7.49
2023-04-15T21:49:01.527Z,7.40
2023-04-15T21:51:28.959Z,7.60
2023-04-15T21:53:56.458Z,7.46
2023-04-15T21:56:24.590Z,7.86
2023-04-15T21:58:57.816Z,7.61
2023-04-15T22:01:26.231Z,7.57
2023-04-15T22:03:54.089Z,7.59
2023-04-15T22:06:23.066Z,7.58
2023-04-15T22:08:56.927Z,7.28
2023-04-15T22:11:27.648Z,7.36
2023-04-15T22:13:56.541Z,7.52
2023-04-15T22:16:24.103Z,7.59
2023-04-15T22:18:51.607Z,7.75
2023-04-15T22:21:19.139Z,7.60
2023-04-15T22:23:48.473Z,7.75
2023-04-15T22:26:16.088Z,7.87
2023-04-15T22:28:43.675Z,8.05
2023-04-15T22:31:11.371Z,8.40
2023-04-15T22:33:39.353Z,8.55
2023-04-15T22:36:07.220Z,8.16
2023-04-15T22:38:34.715Z,8.41
2023-04-15T22:41:03.518Z,7.93
2023-04-15T22:43:30.974Z,7.75
2023-04-15T22:45:58.534Z,7.96
2023-04-15T22:48:26.085Z,7.72
2023-04-15T22:50:53.662Z,7.86
2023-04-15T22:53:21.203Z,8.00
2023-04-15T22:55:49.307Z,8.05
2023-04-15T22:58:18.601Z,7.97
2023-04-15T23:00:46.089Z,8.12
2023-04-15T23:03:13.900Z,8.03
2023-04-15T23:05:42.438Z,8.02
2023-04-15T23:08:09.987Z,7.85
2023-04-15T23:10:39.870Z,7.81
2023-04-15T23:13:07.330Z,7.91
2023-04-15T23:15:37.294Z,7.91
2023-04-15T23:18:04.905Z,7.76
2023-04-15T23:20:32.482Z,7.86
2023-04-15T23:22:59.933Z,7.98
2023-04-15T23:25:27.511Z,8.06
2023-04-15T23:27:55.025Z,7.85
2023-04-15T23:30:22.741Z,7.63
2023-04-15T23:32:51.579Z,7.51
2023-04-15T23:35:19.050Z,7.53
2023-04-15T23:37:46.558Z,7.42
2023-04-15T23:40:15.644Z,7.59
2023-04-15T23:42:43.278Z,7.69
2023-04-15T23:45:11.723Z,7.50
2023-04-15T23:47:39.322Z,7.57
2023-04-15T23:50:09.395Z,7.43
2023-04-15T23:52:37.250Z,7.51
2023-04-15T23:55:05.590Z,7.60
2023-04-15T23:57:33.077Z,7.48
